Time;durP1;ratioP1;P1;durP2;ratioP2;P2;SDS_P1;SDS_P2;PMS_P1;PMS_P2;Temp;Humidity;BMP_temperature;BMP_pressure;BME280_temperature;BME280_humidity;BME280_pressure;Samples;Min_cycle;Max_cycle;Signal;HPM_P1;HPM_P2
2022/10/13 06:23:42;;;;;;;1.63;0.90;;;;;;;16.52;72.53;99941.16;5127356;27;20548;-59
2022/10/13 06:26:08;;;;;;;1.43;1.03;;;;;;;16.43;72.12;99937.59;5128126;27;20201;-57
2022/10/13 06:28:35;;;;;;;1.23;0.63;;;;;;;16.58;71.39;99947.59;5127912;27;20201;-57
2022/10/13 06:31:04;;;;;;;2.70;1.37;;;;;;;16.68;71.38;99956.22;5127804;27;20212;-57
2022/10/13 06:33:31;;;;;;;0.80;0.80;;;;;;;16.64;70.34;99954.81;5127839;27;20615;-59
2022/10/13 06:36:02;;;;;;;1.13;0.97;;;;;;;16.52;72.08;99957.50;5127617;27;20219;-57
2022/10/13 06:38:29;;;;;;;1.63;1.50;;;;;;;16.69;71.30;99957.84;5127670;27;20664;-59
2022/10/13 06:41:00;;;;;;;3.73;0.83;;;;;;;16.96;68.71;99963.31;5127229;27;20596;-57
2022/10/13 06:43:28;;;;;;;1.10;1.00;;;;;;;16.94;70.53;99962.59;5126851;27;20216;-59
2022/10/13 06:45:58;;;;;;;0.83;0.83;;;;;;;16.94;69.48;99962.59;5127456;27;20248;-59
2022/10/13 06:48:25;;;;;;;1.33;1.00;;;;;;;17.23;67.58;99955.91;5127249;27;20216;-59
2022/10/13 06:50:52;;;;;;;1.97;1.20;;;;;;;17.01;67.21;99962.09;5127404;27;20193;-59
2022/10/13 06:53:20;;;;;;;1.13;0.90;;;;;;;17.00;68.49;99955.28;5127311;27;20668;-57
2022/10/13 06:55:47;;;;;;;3.70;1.90;;;;;;;17.15;68.55;99954.78;5127206;27;20208;-57
2022/10/13 06:58:15;;;;;;;2.47;1.97;;;;;;;17.38;67.86;99963.13;5127127;27;20221;-59
2022/10/13 07:00:42;;;;;;;2.67;1.60;;;;;;;17.45;66.55;99952.25;5127278;27;20208;-57
2022/10/13 07:03:11;;;;;;;2.17;1.53;;;;;;;17.49;67.74;99961.41;5127106;27;20212;-59
2022/10/13 07:05:38;;;;;;;2.27;1.10;;;;;;;17.83;67.97;99965.28;5127337;27;20201;-59
2022/10/13 07:08:05;;;;;;;0.60;0.60;;;;;;;17.55;65.30;99960.88;5127183;27;20224;-59
2022/10/13 07:10:31;;;;;;;10.40;5.23;;;;;;;17.74;66.95;99960.88;5127214;27;20206;-57
2022/10/13 07:12:58;;;;;;;2.63;1.40;;;;;;;17.83;66.07;99964.44;5127212;27;20241;-59
2022/10/13 07:15:27;;;;;;;1.70;0.90;;;;;;;17.90;64.45;99954.38;5126763;27;20197;-57
2022/10/13 07:17:54;;;;;;;1.27;1.07;;;;;;;17.86;66.30;99965.00;5127227;27;20275;-59
2022/10/13 07:20:21;;;;;;;1.90;1.43;;;;;;;17.91;65.57;99958.59;5126812;27;20224;-59
2022/10/13 07:22:48;;;;;;;1.90;1.37;;;;;;;18.39;65.72;99960.31;5122882;27;20605;-59
2022/10/13 07:25:15;;;;;;;2.43;1.80;;;;;;;18.50;64.75;99960.97;5113169;28;20200;-59
2022/10/13 07:27:43;;;;;;;2.17;1.43;;;;;;;18.85;62.43;99956.94;5113414;28;20599;-59
2022/10/13 07:30:11;;;;;;;2.30;1.90;;;;;;;18.93;62.54;99956.22;5112924;28;20196;-59
2022/10/13 07:32:40;;;;;;;2.47;1.40;;;;;;;18.05;63.34;99959.00;5113316;28;20234;-59
2022/10/13 07:35:08;;;;;;;1.37;0.93;;;;;;;18.40;64.48;99965.34;5113054;28;20693;-57
2022/10/13 07:37:35;;;;;;;1.10;1.00;;;;;;;18.30;61.88;99959.38;5113086;28;20236;-57
2022/10/13 07:40:02;;;;;;;1.97;1.33;;;;;;;18.74;61.00;99957.94;5112947;28;20212;-59
2022/10/13 07:42:29;;;;;;;1.87;0.93;;;;;;;18.58;61.50;99955.06;5112534;28;20227;-60
2022/10/13 07:44:56;;;;;;;1.67;1.10;;;;;;;18.98;61.64;99954.00;5112673;28;20200;-59
2022/10/13 07:47:23;;;;;;;2.23;1.93;;;;;;;19.34;61.43;99956.69;5112695;28;20653;-58
2022/10/13 07:49:53;;;;;;;2.73;1.93;;;;;;;19.43;60.45;99955.78;5112622;28;20589;-58
2022/10/13 07:52:20;;;;;;;6.37;1.97;;;;;;;19.45;61.18;99957.28;5112502;28;20729;-58
2022/10/13 07:54:47;;;;;;;6.53;4.07;;;;;;;19.61;59.53;99959.25;5112590;28;20207;-58
2022/10/13 07:57:14;;;;;;;2.13;1.93;;;;;;;19.77;58.52;99958.59;5112380;27;20237;-58
2022/10/13 07:59:41;;;;;;;1.10;0.90;;;;;;;19.33;58.93;99952.47;5112494;28;20752;-59
2022/10/13 08:02:09;;;;;;;6.53;2.13;;;;;;;19.54;60.56;99952.19;5112871;28;20248;-59
2022/10/13 08:04:36;;;;;;;5.77;3.63;;;;;;;19.65;59.03;99952.00;5112836;28;20228;-59
2022/10/13 08:07:06;;;;;;;3.40;2.00;;;;;;;19.58;60.29;99954.34;5112466;28;20228;-58
2022/10/13 08:09:33;;;;;;;1.67;1.03;;;;;;;19.59;59.32;99955.97;5112402;28;20198;-58
2022/10/13 08:12:00;;;;;;;1.33;1.00;;;;;;;19.53;56.71;99951.38;5112189;28;20246;-59
2022/10/13 08:14:27;;;;;;;6.93;1.87;;;;;;;19.64;59.84;99953.75;5112007;28;20201;-58
2022/10/13 08:16:54;;;;;;;1.57;1.20;;;;;;;19.84;58.60;99948.47;5111857;28;20217;-58
2022/10/13 08:19:21;;;;;;;5.70;2.50;;;;;;;19.79;57.43;99945.47;5112172;28;20198;-59
2022/10/13 08:21:48;;;;;;;3.27;1.80;;;;;;;19.60;56.90;99941.22;5111795;28;20329;-57
2022/10/13 08:24:18;;;;;;;2.53;1.97;;;;;;;19.63;57.67;99946.94;5111893;28;20692;-58
2022/10/13 08:26:46;;;;;;;18.43;7.33;;;;;;;19.84;57.13;99948.47;5111840;27;20229;-60
2022/10/13 08:29:14;;;;;;;1.93;1.40;;;;;;;20.08;58.63;99948.63;5111693;28;20198;-57
2022/10/13 08:31:41;;;;;;;6.70;2.93;;;;;;;20.22;57.08;99946.47;5111763;27;20222;-59
2022/10/13 08:34:07;;;;;;;2.30;1.47;;;;;;;20.30;54.34;99947.34;5111492;28;20256;-58
2022/10/13 08:36:34;;;;;;;3.33;1.90;;;;;;;20.58;55.93;99948.00;5111553;28;20633;-57
2022/10/13 08:39:01;;;;;;;2.80;1.13;;;;;;;20.56;52.75;99947.34;5111717;28;20704;-59
2022/10/13 08:41:32;;;;;;;1.83;1.57;;;;;;;20.55;53.14;99950.91;5111488;28;20618;-58
2022/10/13 08:44:05;;;;;;;1.00;0.90;;;;;;;20.43;53.68;99946.94;5111481;28;20199;-58
2022/10/13 08:46:39;;;;;;;7.23;4.83;;;;;;;20.57;54.07;99941.19;5111644;28;20223;-59
2022/10/13 08:49:07;;;;;;;4.10;2.20;;;;;;;20.79;52.08;99944.22;5111506;28;20651;-59
2022/10/13 08:51:35;;;;;;;1.43;1.17;;;;;;;20.60;53.67;99944.47;5111236;28;20256;-58
2022/10/13 08:54:02;;;;;;;7.77;3.80;;;;;;;20.92;52.49;99949.81;5111327;28;20208;-59
2022/10/13 08:56:33;;;;;;;1.10;1.00;;;;;;;20.86;52.14;99945.22;5111379;28;20572;-57
2022/10/13 08:59:02;;;;;;;2.47;1.73;;;;;;;21.01;50.67;99942.84;5111148;28;20193;-60
2022/10/13 09:01:30;;;;;;;19.60;8.07;;;;;;;21.14;51.82;99938.00;5111336;28;20220;-57
2022/10/13 09:04:11;;;;;;;27.20;10.57;;;;;;;21.27;50.84;99942.75;5111177;28;20209;-59
2022/10/13 09:06:41;;;;;;;21.90;10.57;;;;;;;21.33;50.67;99936.91;5111159;28;20226;-60
2022/10/13 09:09:10;;;;;;;13.27;5.93;;;;;;;21.33;50.09;99947.31;5110835;28;20275;-60
2022/10/13 09:11:40;;;;;;;13.53;4.50;;;;;;;21.43;49.96;99940.22;5111270;28;20227;-60
2022/10/13 09:14:09;;;;;;;53.07;22.37;;;;;;;21.53;49.38;99937.47;5111079;28;20207;-58
2022/10/13 09:16:38;;;;;;;14.63;8.70;;;;;;;21.69;48.22;99936.66;5111142;27;20288;-59
2022/10/13 09:19:21;;;;;;;11.27;4.23;;;;;;;21.81;48.41;99932.75;5110894;28;20202;-59
2022/10/13 09:21:48;;;;;;;31.53;10.77;;;;;;;21.34;48.63;99933.34;5110757;28;20316;-59
2022/10/13 09:24:17;;;;;;;13.07;6.47;;;;;;;21.31;47.38;99933.66;5110556;28;20224;-57
2022/10/13 09:26:47;;;;;;;11.23;4.27;;;;;;;21.60;47.53;99940.25;5110732;28;20288;-57
2022/10/13 09:29:18;;;;;;;2.60;1.47;;;;;;;21.27;47.52;99927.16;5110929;28;20198;-58
2022/10/13 09:31:45;;;;;;;1.17;0.80;;;;;;;20.78;49.13;99927.81;5110680;28;20590;-58
2022/10/13 09:34:24;;;;;;;6.27;2.50;;;;;;;20.75;49.03;99933.31;5110700;28;20253;-60
2022/10/13 09:37:02;;;;;;;2.60;1.90;;;;;;;20.87;47.86;99926.06;5110659;28;20301;-57
2022/10/13 09:39:29;;;;;;;10.07;4.33;;;;;;;21.00;47.91;99921.25;5110490;28;20291;-58
2022/10/13 09:42:25;;;;;;;3.13;2.17;;;;;;;20.67;49.48;99924.66;5110557;28;20220;-57
2022/10/13 09:45:01;;;;;;;19.57;6.90;;;;;;;20.54;49.06;99917.31;5110281;28;20201;-60
2022/10/13 09:47:31;;;;;;;8.27;2.53;;;;;;;20.54;49.37;99909.50;5110081;28;20311;-60
2022/10/13 09:50:02;;;;;;;5.03;2.27;;;;;;;20.54;51.51;99909.50;5110292;28;20211;-59
2022/10/13 09:52:29;;;;;;;4.30;2.70;;;;;;;20.62;51.55;99914.72;5110494;28;20719;-59
2022/10/13 09:54:59;;;;;;;3.50;1.80;;;;;;;20.94;50.00;99921.88;5110135;28;20683;-60
2022/10/13 09:57:38;;;;;;;2.63;1.37;;;;;;;21.00;47.81;99916.03;5110314;28;20807;-59
2022/10/13 10:00:14;;;;;;;1.27;0.80;;;;;;;21.16;47.65;99914.44;5110367;28;20668;-58
2022/10/13 10:02:48;;;;;;;6.27;2.80;;;;;;;21.86;50.36;99912.28;5110250;28;20276;-58
2022/10/13 10:05:23;;;;;;;5.33;2.47;;;;;;;22.04;48.29;99908.66;5110219;28;20709;-60
2022/10/13 10:07:51;;;;;;;3.20;1.20;;;;;;;22.12;49.01;99911.28;5110054;28;20250;-58
2022/10/13 10:10:30;;;;;;;1.30;1.20;;;;;;;22.22;45.98;99901.50;5110140;28;20236;-58
2022/10/13 10:12:59;;;;;;;3.63;1.60;;;;;;;21.82;48.62;99897.16;5109990;28;20267;-60
2022/10/13 10:15:36;;;;;;;1.00;0.93;;;;;;;22.07;48.62;99897.94;5109867;28;20200;-58
2022/10/13 10:18:08;;;;;;;3.17;1.83;;;;;;;22.20;47.78;99903.47;5109900;28;20248;-58
2022/10/13 10:21:00;;;;;;;1.70;1.43;;;;;;;22.24;47.92;99899.56;5110330;28;20789;-59
2022/10/13 10:23:37;;;;;;;4.13;2.17;;;;;;;22.49;47.94;99891.69;5109949;28;20711;-60
2022/10/13 10:26:09;;;;;;;2.80;1.40;;;;;;;22.71;46.99;99890.91;5109839;28;20207;-58
2022/10/13 10:29:07;;;;;;;0.77;0.63;;;;;;;22.90;46.72;99888.91;5109985;28;20209;-58
2022/10/13 10:31:50;;;;;;;1.23;1.13;;;;;;;22.85;46.13;99893.81;5110134;28;20233;-58
2022/10/13 10:34:30;;;;;;;6.07;2.87;;;;;;;22.99;46.23;99872.25;5109662;28;20716;-58
2022/10/13 10:37:13;;;;;;;7.03;2.57;;;;;;;23.28;46.42;99875.00;5110028;28;20266;-58
2022/10/13 10:39:47;;;;;;;3.13;2.05;;;;;;;23.39;45.91;99878.19;5109720;28;20687;-60
2022/10/13 10:42:29;;;;;;;1.52;1.02;;;;;;;23.53;46.23;99869.56;5109663;28;20232;-60
2022/10/13 10:44:58;;;;;;;1.17;1.08;;;;;;;23.78;47.43;99856.34;5109805;28;20246;-58
2022/10/13 10:47:27;;;;;;;6.65;1.77;;;;;;;23.73;45.11;99865.53;5109597;28;20708;-59
2022/10/13 10:50:00;;;;;;;0.90;0.88;;;;;;;23.65;44.29;99852.53;5109410;28;20729;-60
2022/10/13 10:52:37;;;;;;;1.52;1.20;;;;;;;23.77;44.91;99859.97;5109519;28;20231;-60
2022/10/13 10:55:17;;;;;;;1.55;1.08;;;;;;;24.02;44.92;99853.50;5109974;28;20668;-58
2022/10/13 10:57:56;;;;;;;1.73;1.15;;;;;;;23.49;43.31;99847.44;5109888;28;20229;-60
2022/10/13 11:00:24;;;;;;;3.17;1.08;;;;;;;23.54;45.31;99842.50;5113435;28;20691;-58
2022/10/13 11:03:00;;;;;;;1.67;1.17;;;;;;;23.40;43.85;99838.06;5113634;28;20232;-60
2022/10/13 11:05:51;;;;;;;2.50;1.20;;;;;;;23.42;45.26;99833.47;5113411;28;20197;-60
2022/10/13 11:08:28;;;;;;;0.90;0.70;;;;;;;23.28;45.95;99841.06;5113071;28;20229;-60
2022/10/13 11:11:29;;;;;;;0.73;0.73;;;;;;;23.22;44.43;99831.34;5113324;28;20200;-58
2022/10/13 11:13:59;;;;;;;0.88;0.70;;;;;;;23.31;44.65;99833.88;5112940;28;20232;-58
2022/10/13 11:16:31;;;;;;;0.68;0.65;;;;;;;23.47;44.58;99828.53;5112947;28;20232;-60
2022/10/13 11:19:07;;;;;;;1.27;1.17;;;;;;;23.19;42.97;99823.84;5113048;28;20224;-60
2022/10/13 11:22:12;;;;;;;0.70;0.70;;;;;;;23.05;44.87;99814.19;5112982;28;20712;-58
2022/10/13 11:24:52;;;;;;;0.82;0.82;;;;;;;23.18;43.76;99819.59;5113218;28;20224;-60
2022/10/13 11:27:24;;;;;;;0.70;0.70;;;;;;;23.29;44.74;99813.19;5112903;28;20221;-60
2022/10/13 11:29:54;;;;;;;1.02;1.00;;;;;;;23.31;43.61;99805.19;5113055;28;20612;-58
2022/10/13 11:32:53;;;;;;;0.90;0.90;;;;;;;22.94;43.85;99796.28;5113115;27;20755;-58
2022/10/13 11:35:25;;;;;;;1.33;1.07;;;;;;;22.79;44.20;99804.84;5112876;27;20203;-58
2022/10/13 11:38:20;;;;;;;1.00;0.80;;;;;;;22.97;43.91;99791.56;5113126;28;20252;-58
2022/10/13 11:41:08;;;;;;;1.25;1.00;;;;;;;23.30;43.16;99795.72;5112685;28;20211;-58
2022/10/13 11:43:46;;;;;;;0.88;0.88;;;;;;;23.07;43.10;99800.94;5112741;28;20714;-59
2022/10/13 11:46:30;;;;;;;1.20;1.10;;;;;;;23.13;42.99;99795.88;5112508;28;20259;-57
2022/10/13 11:49:23;;;;;;;1.03;0.97;;;;;;;22.87;42.78;99796.19;5112367;28;20197;-60
2022/10/13 11:52:07;;;;;;;0.83;0.83;;;;;;;22.92;43.34;99798.25;5081444;28;20239;-58
2022/10/13 11:54:39;;;;;;;3.10;1.00;;;;;;;22.72;42.46;99788.28;5112411;28;20240;-58
2022/10/13 11:57:18;;;;;;;1.97;1.30;;;;;;;22.81;43.46;99797.69;5112721;28;20228;-58
2022/10/13 11:59:47;;;;;;;1.30;1.20;;;;;;;22.57;42.80;99782.16;5112384;28;20196;-59
2022/10/13 12:02:16;;;;;;;1.10;0.97;;;;;;;22.56;43.61;99773.53;5112629;28;20243;-58
2022/10/13 12:04:44;;;;;;;2.00;1.27;;;;;;;22.19;44.46;99774.19;5112143;28;20207;-60
2022/10/13 12:07:13;;;;;;;1.20;1.10;;;;;;;22.30;43.35;99760.81;5111999;28;20225;-58
2022/10/13 12:09:50;;;;;;;2.20;2.00;;;;;;;22.19;44.31;99771.59;5111961;28;20227;-60
2022/10/13 12:12:21;;;;;;;1.57;1.23;;;;;;;22.14;45.24;99763.47;5112443;28;20302;-58
2022/10/13 12:14:50;;;;;;;1.80;1.47;;;;;;;22.31;44.00;99765.06;5112205;27;20259;-58
2022/10/13 12:17:23;;;;;;;2.40;1.47;;;;;;;22.27;44.70;99760.34;5111852;28;20216;-58
2022/10/13 12:19:50;;;;;;;2.00;1.20;;;;;;;22.37;44.71;99753.16;5111995;28;20206;-59
2022/10/13 12:22:16;;;;;;;2.93;1.70;;;;;;;22.40;44.22;99758.00;5111719;28;20228;-58
2022/10/13 12:24:43;;;;;;;1.20;1.10;;;;;;;22.37;42.86;99764.38;5111885;28;20213;-60
2022/10/13 12:27:11;;;;;;;1.37;0.90;;;;;;;22.35;42.80;99758.50;5111856;28;20307;-58
2022/10/13 12:29:40;;;;;;;1.83;1.20;;;;;;;22.32;42.99;99756.25;5112187;28;20287;-57
2022/10/13 12:32:18;;;;;;;2.33;1.20;;;;;;;21.97;44.87;99769.72;5111798;28;20307;-58
2022/10/13 12:34:45;;;;;;;1.17;1.00;;;;;;;21.90;44.73;99757.38;5111514;28;20231;-59
2022/10/13 12:37:21;;;;;;;3.53;1.53;;;;;;;21.98;45.17;99766.94;5111416;28;20732;-60
2022/10/13 12:39:48;;;;;;;3.77;2.17;;;;;;;21.99;43.94;99765.13;5111616;28;20193;-57
2022/10/13 12:42:15;;;;;;;2.83;1.40;;;;;;;22.23;43.16;99762.47;5111806;28;20214;-59
2022/10/13 12:44:45;;;;;;;1.40;1.00;;;;;;;21.77;43.16;99757.06;5111525;28;20200;-57
2022/10/13 12:47:36;;;;;;;1.47;1.33;;;;;;;21.45;41.84;99763.16;5111789;28;20225;-59
2022/10/13 12:50:34;;;;;;;1.30;1.20;;;;;;;21.52;42.15;99750.28;5111522;28;20211;-58
2022/10/13 12:53:10;;;;;;;2.23;1.40;;;;;;;21.57;42.57;99748.81;5056626;28;20224;-59
2022/10/13 12:55:47;;;;;;;1.93;0.97;;;;;;;21.78;44.16;99758.69;5111867;28;20240;-58
2022/10/13 12:58:20;;;;;;;1.50;1.20;;;;;;;21.84;42.81;99750.19;5111149;28;20733;-60
2022/10/13 13:00:57;;;;;;;1.33;1.23;;;;;;;21.69;42.47;99749.28;5111307;28;20279;-58
2022/10/13 13:03:27;;;;;;;3.60;1.70;;;;;;;21.71;42.46;99747.31;5110989;28;20223;-58
2022/10/13 13:06:11;;;;;;;1.03;0.93;;;;;;;21.62;42.08;99740.53;5111062;28;20662;-60
2022/10/13 13:08:38;;;;;;;1.30;1.20;;;;;;;21.59;40.94;99748.66;5111073;28;20206;-58
2022/10/13 13:11:07;;;;;;;1.17;0.80;;;;;;;21.56;43.42;99741.19;5111435;28;20198;-58
2022/10/13 13:13:34;;;;;;;3.87;1.00;;;;;;;21.33;42.06;99744.44;5110919;28;20316;-60
2022/10/13 13:16:17;;;;;;;1.17;0.83;;;;;;;21.33;40.87;99744.44;5111079;28;20209;-58
2022/10/13 13:18:45;;;;;;;1.33;0.90;;;;;;;21.39;39.81;99738.59;5111173;28;20194;-59
2022/10/13 13:21:15;;;;;;;0.90;0.70;;;;;;;21.27;41.12;99739.88;5110243;28;20701;-58
2022/10/13 13:23:44;;;;;;;0.67;0.63;;;;;;;21.41;41.34;99731.44;5110817;28;20268;-60
2022/10/13 13:26:13;;;;;;;0.80;0.80;;;;;;;21.30;40.44;99729.16;5110673;28;20658;-59
2022/10/13 13:28:45;;;;;;;0.87;0.80;;;;;;;21.22;40.67;99731.75;5110714;28;20200;-60
2022/10/13 13:31:12;;;;;;;0.83;0.70;;;;;;;21.02;38.88;99721.69;5110610;28;20195;-58
2022/10/13 13:33:41;;;;;;;0.93;0.70;;;;;;;21.00;40.52;99728.84;5110747;28;20256;-60
2022/10/13 13:36:15;;;;;;;0.90;0.70;;;;;;;20.84;40.23;99725.41;5110705;28;20637;-58
2022/10/13 13:38:42;;;;;;;1.20;0.67;;;;;;;20.82;40.45;99720.38;5110923;28;20232;-59
2022/10/13 13:41:10;;;;;;;1.23;0.73;;;;;;;20.86;40.78;99713.09;5110737;28;20581;-58
2022/10/13 13:43:37;;;;;;;0.73;0.73;;;;;;;20.71;39.72;99718.09;5110891;28;20683;-59
2022/10/13 13:46:05;;;;;;;0.50;0.50;;;;;;;20.65;39.86;99713.53;5110520;28;20654;-59
2022/10/13 13:48:32;;;;;;;0.63;0.63;;;;;;;20.48;39.49;99703.09;5110328;28;20193;-58
2022/10/13 13:51:00;;;;;;;0.73;0.60;;;;;;;20.46;39.51;99705.03;5110263;28;20681;-60
2022/10/13 13:53:27;;;;;;;0.67;0.67;;;;;;;20.39;38.06;99695.44;5110102;28;20227;-59
2022/10/13 13:55:54;;;;;;;0.80;0.80;;;;;;;20.24;39.26;99690.84;5110158;28;20210;-59
2022/10/13 13:58:21;;;;;;;0.73;0.73;;;;;;;20.11;38.56;99696.50;5110127;28;20738;-57
2022/10/13 14:00:48;;;;;;;1.27;1.00;;;;;;;20.16;35.26;99698.63;5110179;28;20206;-58
2022/10/13 14:03:15;;;;;;;1.33;1.03;;;;;;;20.10;35.09;99699.25;5110241;28;20603;-58
2022/10/13 14:05:42;;;;;;;1.03;0.77;;;;;;;19.98;37.01;99700.50;5110093;28;20202;-59
2022/10/13 14:08:10;;;;;;;1.63;0.80;;;;;;;19.96;37.38;99697.28;5109965;28;20224;-58
2022/10/13 14:10:39;;;;;;;0.80;0.80;;;;;;;19.89;37.81;99691.88;5110571;28;20206;-58
2022/10/13 14:13:06;;;;;;;0.73;0.63;;;;;;;19.94;37.23;99688.81;5110438;28;20638;-58
2022/10/13 14:15:33;;;;;;;0.80;0.80;;;;;;;19.73;37.03;99694.41;5110059;28;20601;-58
2022/10/13 14:18:00;;;;;;;0.47;0.47;;;;;;;19.57;37.06;99702.88;5110019;28;20225;-57
2022/10/13 14:20:26;;;;;;;1.17;1.07;;;;;;;19.60;36.81;99702.56;5110054;28;20194;-59
2022/10/13 14:22:53;;;;;;;1.07;0.70;;;;;;;19.43;37.52;99706.84;5110100;28;20382;-59
2022/10/13 14:25:22;;;;;;;1.30;0.80;;;;;;;19.53;36.81;99707.56;5109899;28;20204;-59
2022/10/13 14:27:48;;;;;;;1.10;1.00;;;;;;;19.34;37.13;99697.38;5110236;28;20700;-58
2022/10/13 14:30:15;;;;;;;2.53;0.87;;;;;;;19.29;36.96;99700.44;5110148;28;20699;-57
2022/10/13 14:32:42;;;;;;;0.77;0.60;;;;;;;19.17;37.39;99697.28;5110445;28;20774;-59
2022/10/13 14:35:09;;;;;;;0.67;0.67;;;;;;;19.08;37.87;99698.19;5114029;28;20235;-59
2022/10/13 14:37:36;;;;;;;0.57;0.57;;;;;;;19.18;38.70;99698.09;5114134;28;20714;-58
2022/10/13 14:40:03;;;;;;;0.97;0.90;;;;;;;19.12;39.49;99694.31;5113865;28;20704;-59
2022/10/13 14:42:31;;;;;;;1.20;1.07;;;;;;;19.10;39.43;99698.84;5114120;28;20228;-59
2022/10/13 14:44:58;;;;;;;0.67;0.63;;;;;;;19.11;39.17;99703.06;5113874;28;20203;-59
2022/10/13 14:47:25;;;;;;;0.70;0.70;;;;;;;19.02;40.16;99709.13;5113907;28;20228;-58
2022/10/13 14:49:51;;;;;;;0.60;0.60;;;;;;;18.90;40.09;99707.75;5114051;28;20204;-59
2022/10/13 14:52:18;;;;;;;4.13;0.70;;;;;;;18.83;40.48;99706.72;5113632;28;20224;-58
2022/10/13 14:54:45;;;;;;;1.23;1.03;;;;;;;18.83;39.49;99709.31;5113543;28;20239;-59
2022/10/13 14:57:15;;;;;;;1.03;0.60;;;;;;;18.63;40.47;99717.19;5113638;28;20226;-60
2022/10/13 14:59:43;;;;;;;0.77;0.60;;;;;;;18.50;40.15;99719.31;5113680;28;20194;-59
2022/10/13 15:02:11;;;;;;;0.50;0.50;;;;;;;18.39;40.58;99711.78;5113601;28;20728;-59
2022/10/13 15:04:38;;;;;;;0.37;0.37;;;;;;;18.38;40.20;99716.13;5113868;28;20206;-58
2022/10/13 15:07:05;;;;;;;0.40;0.40;;;;;;;18.30;41.36;99709.09;5113702;28;20238;-59
2022/10/13 15:09:32;;;;;;;0.93;0.80;;;;;;;18.24;41.96;99714.84;5113276;28;20710;-60
2022/10/13 15:11:58;;;;;;;2.40;1.13;;;;;;;18.12;41.89;99715.16;5113557;28;20335;-58
2022/10/13 15:14:25;;;;;;;0.40;0.40;;;;;;;18.07;42.74;99710.44;5113389;28;20251;-58
2022/10/13 15:16:53;;;;;;;0.77;0.70;;;;;;;18.06;42.09;99707.03;5113420;28;20213;-58
2022/10/13 15:19:20;;;;;;;0.53;0.53;;;;;;;18.00;42.79;99709.38;5113825;28;20200;-58
2022/10/13 15:21:47;;;;;;;1.33;0.60;;;;;;;17.92;42.99;99706.69;5113065;28;20228;-59
2022/10/13 15:24:13;;;;;;;0.57;0.57;;;;;;;17.84;43.51;99708.22;5113052;28;20199;-58
2022/10/13 15:26:41;;;;;;;1.17;0.80;;;;;;;17.77;43.57;99708.88;5112849;28;20215;-59
2022/10/13 15:29:07;;;;;;;1.70;0.73;;;;;;;17.69;44.26;99714.78;5113204;28;20200;-58
2022/10/13 15:31:35;;;;;;;0.90;0.70;;;;;;;17.67;44.96;99726.22;5113270;28;20573;-59
2022/10/13 15:34:03;;;;;;;0.60;0.60;;;;;;;17.58;44.78;99722.69;5113239;28;20711;-59
2022/10/13 15:36:30;;;;;;;0.97;0.70;;;;;;;17.51;45.69;99729.38;5113249;28;20297;-59
2022/10/13 15:38:57;;;;;;;0.80;0.40;;;;;;;17.42;45.58;99724.09;5112971;28;20211;-57
2022/10/13 15:41:24;;;;;;;0.90;0.90;;;;;;;17.20;45.96;99714.88;5112932;28;20211;-58
2022/10/13 15:43:51;;;;;;;1.03;0.90;;;;;;;17.09;46.50;99721.97;5112248;28;20237;-58
2022/10/13 15:46:22;;;;;;;1.37;0.93;;;;;;;17.01;46.46;99729.56;5112544;28;20195;-58
2022/10/13 15:48:50;;;;;;;1.00;0.90;;;;;;;16.90;46.50;99725.34;5112889;27;20202;-58
2022/10/13 15:51:20;;;;;;;1.30;1.03;;;;;;;16.88;46.51;99725.50;5112467;28;20190;-59
2022/10/13 15:53:48;;;;;;;7.20;1.10;;;;;;;16.79;47.02;99718.56;5112857;28;20192;-57
2022/10/13 15:56:15;;;;;;;0.60;0.60;;;;;;;16.68;47.13;99716.88;5112411;28;20190;-59
2022/10/13 15:58:42;;;;;;;0.30;0.30;;;;;;;16.64;46.55;99718.13;5112584;28;20197;-58
2022/10/13 16:01:10;;;;;;;0.70;0.70;;;;;;;16.51;46.24;99718.34;5112564;28;20276;-59
2022/10/13 16:03:36;;;;;;;0.57;0.57;;;;;;;16.41;46.11;99714.97;5112574;28;20677;-60
2022/10/13 16:06:04;;;;;;;5.93;0.83;;;;;;;16.37;46.54;99723.91;5112460;28;20239;-58
2022/10/13 16:08:35;;;;;;;0.97;0.57;;;;;;;16.31;47.41;99711.53;5112494;28;20229;-57
2022/10/13 16:11:07;;;;;;;0.60;0.60;;;;;;;16.27;48.25;99712.75;5112323;28;20197;-57
2022/10/13 16:13:34;;;;;;;1.13;0.60;;;;;;;16.17;48.27;99714.47;5112364;28;20262;-59
2022/10/13 16:16:01;;;;;;;0.47;0.47;;;;;;;16.05;48.29;99717.13;5112292;28;20244;-58
2022/10/13 16:18:29;;;;;;;0.77;0.40;;;;;;;15.99;48.17;99714.28;5111997;28;20248;-57
2022/10/13 16:20:56;;;;;;;0.40;0.40;;;;;;;15.91;48.43;99714.94;5112156;28;20731;-57
2022/10/13 16:23:23;;;;;;;0.50;0.40;;;;;;;15.84;48.93;99708.66;5112439;28;20234;-57
2022/10/13 16:25:53;;;;;;;0.40;0.40;;;;;;;15.74;49.15;99715.53;5111943;28;20217;-58
2022/10/13 16:28:19;;;;;;;0.30;0.30;;;;;;;15.65;50.20;99716.25;5111873;28;20595;-57
2022/10/13 16:30:46;;;;;;;0.30;0.30;;;;;;;15.55;49.96;99721.38;5112062;28;20193;-57
2022/10/13 16:33:13;;;;;;;0.40;0.40;;;;;;;15.40;50.44;99715.72;5112090;28;20223;-57
2022/10/13 16:35:40;;;;;;;1.27;0.67;;;;;;;15.33;50.80;99714.56;5111792;28;20229;-57
2022/10/13 16:38:07;;;;;;;0.50;0.50;;;;;;;15.22;50.57;99712.09;5111769;28;20316;-59
2022/10/13 16:40:34;;;;;;;0.40;0.40;;;;;;;15.14;50.59;99713.50;5111904;28;20201;-57
2022/10/13 16:43:02;;;;;;;0.73;0.47;;;;;;;15.05;50.14;99716.84;5111379;28;20238;-59
2022/10/13 16:45:29;;;;;;;0.30;0.30;;;;;;;14.96;49.99;99709.84;5111438;28;20190;-57
2022/10/13 16:47:56;;;;;;;0.50;0.33;;;;;;;14.91;49.38;99714.56;5111375;28;20312;-59
2022/10/13 16:50:23;;;;;;;1.13;1.03;;;;;;;14.82;49.55;99707.56;5111386;28;20197;-59
2022/10/13 16:52:49;;;;;;;0.20;0.20;;;;;;;14.77;49.06;99702.78;5111932;28;20220;-59
2022/10/13 16:55:16;;;;;;;0.20;0.20;;;;;;;14.73;48.80;99700.59;5110776;28;20225;-57
2022/10/13 16:57:44;;;;;;;0.40;0.40;;;;;;;14.68;47.33;99699.19;5111179;28;20236;-57
2022/10/13 17:00:13;;;;;;;0.20;0.20;;;;;;;14.69;48.05;99700.81;5111531;28;20197;-59
2022/10/13 17:02:40;;;;;;;0.20;0.20;;;;;;;14.68;47.85;99698.38;5111599;28;20756;-57
2022/10/13 17:05:08;;;;;;;0.50;0.33;;;;;;;14.66;48.06;99705.38;5111277;28;20283;-59
2022/10/13 17:07:35;;;;;;;0.60;0.43;;;;;;;14.62;48.09;99698.84;5111267;28;20266;-59
2022/10/13 17:10:03;;;;;;;0.53;0.50;;;;;;;14.60;47.41;99700.72;5111050;28;20310;-57
2022/10/13 17:12:30;;;;;;;0.33;0.23;;;;;;;14.59;47.10;99702.47;5110942;28;20250;-58
2022/10/13 17:14:57;;;;;;;0.60;0.47;;;;;;;14.61;47.74;99698.03;5111020;28;20315;-59
2022/10/13 17:17:26;;;;;;;0.60;0.50;;;;;;;14.56;47.65;99701.91;5111182;28;20249;-58
2022/10/13 17:19:53;;;;;;;0.60;0.60;;;;;;;14.56;47.49;99700.16;5111518;28;20319;-57
2022/10/13 17:22:20;;;;;;;0.93;0.33;;;;;;;14.50;48.05;99696.28;5110629;28;20227;-57
2022/10/13 17:24:48;;;;;;;2.13;0.47;;;;;;;14.47;46.87;99700.84;5110935;28;20201;-59
2022/10/13 17:27:16;;;;;;;0.20;0.20;;;;;;;14.46;48.07;99699.22;5110344;28;20212;-57
2022/10/13 17:29:43;;;;;;;2.40;0.40;;;;;;;14.40;47.77;99697.13;5110801;28;20196;-59
2022/10/13 17:32:10;;;;;;;0.20;0.20;;;;;;;14.35;48.03;99701.81;5110819;28;20219;-57
2022/10/13 17:34:39;;;;;;;0.30;0.30;;;;;;;14.31;48.04;99695.25;5111071;27;20261;-59
2022/10/13 17:37:06;;;;;;;0.20;0.20;;;;;;;14.29;46.86;99697.16;5110614;28;20302;-57
2022/10/13 17:39:33;;;;;;;3.50;0.40;;;;;;;14.29;47.57;99703.13;5110794;27;20211;-57
2022/10/13 17:42:00;;;;;;;0.50;0.50;;;;;;;14.26;47.73;99698.22;5110914;28;20272;-59
2022/10/13 17:44:27;;;;;;;0.83;0.30;;;;;;;14.22;47.34;99697.63;5110613;28;20302;-59
2022/10/13 17:46:56;;;;;;;0.23;0.23;;;;;;;14.16;47.80;99698.09;5110687;28;20302;-57
2022/10/13 17:49:23;;;;;;;0.40;0.40;;;;;;;14.13;47.44;99698.31;5110765;28;20233;-59
2022/10/13 17:51:53;;;;;;;0.20;0.20;;;;;;;14.17;47.46;99689.44;5110273;28;20217;-59
2022/10/13 17:54:23;;;;;;;0.30;0.30;;;;;;;14.14;48.01;99697.41;5110585;28;20283;-58
2022/10/13 17:56:51;;;;;;;0.23;0.23;;;;;;;14.09;47.57;99689.22;5110343;28;20304;-59
2022/10/13 17:59:18;;;;;;;0.30;0.30;;;;;;;14.07;47.14;99683.38;5110279;28;20229;-57
2022/10/13 18:01:46;;;;;;;0.60;0.40;;;;;;;14.02;47.43;99680.31;5110508;28;20213;-58
2022/10/13 18:04:16;;;;;;;0.73;0.73;;;;;;;14.00;47.84;99675.31;5109173;28;20649;-57
2022/10/13 18:06:43;;;;;;;1.33;1.27;;;;;;;14.02;47.70;99681.16;5109993;28;20323;-59
2022/10/13 18:09:14;;;;;;;3.53;0.67;;;;;;;14.00;47.55;99682.22;5110075;28;20210;-58